sensor_id;sensor_type;location;lat;lon;timestamp;pressure;altitude;pressure_sealevel;temperature;humidity
6680;BME280;3376;42.664;23.346;2023-02-17T00:01:19;95408.91;;;1.92;90.15
6680;BME280;3376;42.664;23.346;2023-02-17T00:03:47;95262.91;;;0.97;90.96
6680;BME280;3376;42.664;23.346;2023-02-17T00:06:15;95454.38;;;2.12;91.85
6680;BME280;3376;42.664;23.346;2023-02-17T00:08:43;95449.66;;;2.06;91.60
6680;BME280;3376;42.664;23.346;2023-02-17T00:11:11;95445.03;;;2.11;92.83
6680;BME280;3376;42.664;23.346;2023-02-17T00:13:38;95446.16;;;2.19;92.50
6680;BME280;3376;42.664;23.346;2023-02-17T00:16:08;95424.59;;;2.11;92.55
6680;BME280;3376;42.664;23.346;2023-02-17T00:18:35;95440.44;;;2.28;91.54
6680;BME280;3376;42.664;23.346;2023-02-17T00:21:12;95441.66;;;2.23;91.23
6680;BME280;3376;42.664;23.346;2023-02-17T00:23:39;95438.94;;;2.13;90.98
6680;BME280;3376;42.664;23.346;2023-02-17T00:26:06;95440.25;;;2.19;92.43
6680;BME280;3376;42.664;23.346;2023-02-17T00:28:33;95455.38;;;2.09;92.51
6680;BME280;3376;42.664;23.346;2023-02-17T00:31:04;95289.97;;;1.12;92.11
6680;BME280;3376;42.664;23.346;2023-02-17T00:33:31;95428.81;;;1.87;92.77
6680;BME280;3376;42.664;23.346;2023-02-17T00:35:58;95426.66;;;1.81;93.07
6680;BME280;3376;42.664;23.346;2023-02-17T00:38:28;95413.75;;;1.70;93.30
6680;BME280;3376;42.664;23.346;2023-02-17T00:40:55;95416.84;;;1.75;93.51
6680;BME280;3376;42.664;23.346;2023-02-17T00:43:21;95418.38;;;1.77;93.35
6680;BME280;3376;42.664;23.346;2023-02-17T00:45:48;95391.09;;;1.65;93.89
6680;BME280;3376;42.664;23.346;2023-02-17T00:48:15;95406.63;;;1.75;92.71
6680;BME280;3376;42.664;23.346;2023-02-17T00:50:41;95416.03;;;1.74;93.40
6680;BME280;3376;42.664;23.346;2023-02-17T00:53:08;95402.63;;;1.58;94.16
6680;BME280;3376;42.664;23.346;2023-02-17T00:55:36;95418.16;;;1.68;93.90
6680;BME280;3376;42.664;23.346;2023-02-17T00:58:03;95417.34;;;1.67;94.47
6680;BME280;3376;42.664;23.346;2023-02-17T01:00:30;95416.72;;;1.89;94.03
6680;BME280;3376;42.664;23.346;2023-02-17T01:02:56;95403.16;;;1.88;93.81
6680;BME280;3376;42.664;23.346;2023-02-17T01:05:23;95415.13;;;1.88;93.29
6680;BME280;3376;42.664;23.346;2023-02-17T01:07:50;95419.81;;;1.94;93.23
6680;BME280;3376;42.664;23.346;2023-02-17T01:10:17;95409.78;;;1.91;92.72
6680;BME280;3376;42.664;23.346;2023-02-17T01:12:45;95416.13;;;1.98;92.22
6680;BME280;3376;42.664;23.346;2023-02-17T01:15:13;95290.47;;;1.17;93.38
6680;BME280;3376;42.664;23.346;2023-02-17T01:17:40;95396.31;;;1.89;93.66
6680;BME280;3376;42.664;23.346;2023-02-17T01:20:07;95410.41;;;2.07;94.50
6680;BME280;3376;42.664;23.346;2023-02-17T01:22:34;95408.56;;;2.34;92.24
6680;BME280;3376;42.664;23.346;2023-02-17T01:25:03;95403.84;;;2.28;89.98
6680;BME280;3376;42.664;23.346;2023-02-17T01:27:30;95410.81;;;2.13;90.55
6680;BME280;3376;42.664;23.346;2023-02-17T01:29:58;95383.03;;;1.84;92.17
6680;BME280;3376;42.664;23.346;2023-02-17T01:32:25;95377.81;;;1.73;94.55
6680;BME280;3376;42.664;23.346;2023-02-17T01:34:52;95382.59;;;1.65;94.37
6680;BME280;3376;42.664;23.346;2023-02-17T01:37:19;95389.66;;;1.74;93.94
6680;BME280;3376;42.664;23.346;2023-02-17T01:39:45;95387.09;;;1.61;94.55
6680;BME280;3376;42.664;23.346;2023-02-17T01:42:14;95399.56;;;1.66;94.92
6680;BME280;3376;42.664;23.346;2023-02-17T01:47:49;95392.50;;;1.57;94.05
6680;BME280;3376;42.664;23.346;2023-02-17T01:50:21;95389.75;;;1.47;94.37
6680;BME280;3376;42.664;23.346;2023-02-17T01:52:48;95369.91;;;1.38;96.41
6680;BME280;3376;42.664;23.346;2023-02-17T01:55:18;95398.81;;;1.51;97.16
6680;BME280;3376;42.664;23.346;2023-02-17T01:57:46;95328.44;;;1.09;95.89
6680;BME280;3376;42.664;23.346;2023-02-17T02:00:15;95389.31;;;1.28;96.54
6680;BME280;3376;42.664;23.346;2023-02-17T02:02:44;95400.53;;;1.38;96.62
6680;BME280;3376;42.664;23.346;2023-02-17T02:05:14;95392.56;;;1.30;97.80
6680;BME280;3376;42.664;23.346;2023-02-17T02:07:42;95380.75;;;1.42;97.92
6680;BME280;3376;42.664;23.346;2023-02-17T02:10:11;95386.25;;;1.48;97.56
6680;BME280;3376;42.664;23.346;2023-02-17T02:12:41;95390.88;;;1.56;97.12
6680;BME280;3376;42.664;23.346;2023-02-17T02:15:11;95401.72;;;1.59;96.26
6680;BME280;3376;42.664;23.346;2023-02-17T02:17:46;95369.94;;;1.51;96.25
6680;BME280;3376;42.664;23.346;2023-02-17T02:20:32;95387.53;;;1.68;95.05
6680;BME280;3376;42.664;23.346;2023-02-17T02:26:24;95384.66;;;1.72;94.23
6680;BME280;3376;42.664;23.346;2023-02-17T02:29:16;95367.59;;;1.60;94.54
6680;BME280;3376;42.664;23.346;2023-02-17T02:31:57;95384.34;;;1.52;95.52
6680;BME280;3376;42.664;23.346;2023-02-17T02:34:33;95381.38;;;1.45;95.91
6680;BME280;3376;42.664;23.346;2023-02-17T02:37:07;95388.84;;;1.61;94.84
6680;BME280;3376;42.664;23.346;2023-02-17T02:39:39;95386.16;;;1.50;95.26
6680;BME280;3376;42.664;23.346;2023-02-17T02:42:11;95384.91;;;1.43;96.04
6680;BME280;3376;42.664;23.346;2023-02-17T02:44:40;95379.91;;;1.29;96.52
6680;BME280;3376;42.664;23.346;2023-02-17T02:50:11;95377.03;;;1.20;97.55
6680;BME280;3376;42.664;23.346;2023-02-17T02:52:46;95380.59;;;1.18;97.69
6680;BME280;3376;42.664;23.346;2023-02-17T02:55:20;95383.72;;;1.09;98.18
6680;BME280;3376;42.664;23.346;2023-02-17T02:57:53;95384.31;;;1.00;99.71
6680;BME280;3376;42.664;23.346;2023-02-17T03:00:31;95385.50;;;0.94;99.88
6680;BME280;3376;42.664;23.346;2023-02-17T03:03:08;95350.06;;;0.77;99.25
6680;BME280;3376;42.664;23.346;2023-02-17T03:05:46;95384.72;;;1.06;100.00
6680;BME280;3376;42.664;23.346;2023-02-17T03:08:19;95390.47;;;1.10;99.70
6680;BME280;3376;42.664;23.346;2023-02-17T03:10:52;95390.19;;;1.14;100.00
6680;BME280;3376;42.664;23.346;2023-02-17T03:13:20;95371.91;;;1.08;100.00
6680;BME280;3376;42.664;23.346;2023-02-17T03:15:47;95372.50;;;1.11;99.74
6680;BME280;3376;42.664;23.346;2023-02-17T03:18:14;95389.56;;;1.23;99.61
6680;BME280;3376;42.664;23.346;2023-02-17T03:20:45;95391.72;;;1.17;99.78
6680;BME280;3376;42.664;23.346;2023-02-17T03:23:13;95380.09;;;1.13;99.43
6680;BME280;3376;42.664;23.346;2023-02-17T03:25:40;95386.81;;;1.14;99.28
6680;BME280;3376;42.664;23.346;2023-02-17T03:28:09;95390.97;;;1.15;98.08
6680;BME280;3376;42.664;23.346;2023-02-17T03:30:36;95392.00;;;1.12;99.03
6680;BME280;3376;42.664;23.346;2023-02-17T03:33:03;95341.72;;;0.88;99.62
6680;BME280;3376;42.664;23.346;2023-02-17T03:35:29;95375.59;;;1.16;98.54
6680;BME280;3376;42.664;23.346;2023-02-17T03:37:58;95380.34;;;1.35;96.47
6680;BME280;3376;42.664;23.346;2023-02-17T03:40:24;95387.66;;;1.27;98.39
6680;BME280;3376;42.664;23.346;2023-02-17T03:42:51;95371.63;;;1.25;98.61
6680;BME280;3376;42.664;23.346;2023-02-17T03:45:18;95386.66;;;1.30;98.64
6680;BME280;3376;42.664;23.346;2023-02-17T03:47:45;95376.81;;;1.23;98.21
6680;BME280;3376;42.664;23.346;2023-02-17T03:50:11;95237.25;;;0.35;98.92
6680;BME280;3376;42.664;23.346;2023-02-17T03:52:38;95352.44;;;1.19;99.63
6680;BME280;3376;42.664;23.346;2023-02-17T03:55:06;95377.09;;;1.46;98.93
6680;BME280;3376;42.664;23.346;2023-02-17T03:57:33;95363.59;;;1.44;98.37
6680;BME280;3376;42.664;23.346;2023-02-17T04:00:00;95354.41;;;1.29;97.52
6680;BME280;3376;42.664;23.346;2023-02-17T04:02:27;95379.31;;;1.38;97.80
6680;BME280;3376;42.664;23.346;2023-02-17T04:04:54;95373.59;;;1.47;96.71
6680;BME280;3376;42.664;23.346;2023-02-17T04:07:21;95360.72;;;1.36;96.02
6680;BME280;3376;42.664;23.346;2023-02-17T04:09:48;95366.22;;;1.30;96.42
6680;BME280;3376;42.664;23.346;2023-02-17T04:12:16;95383.00;;;1.34;96.62
6680;BME280;3376;42.664;23.346;2023-02-17T04:14:43;95388.72;;;1.37;97.60
6680;BME280;3376;42.664;23.346;2023-02-17T04:17:09;95389.31;;;1.28;97.52
6680;BME280;3376;42.664;23.346;2023-02-17T04:19:36;95393.34;;;1.18;97.72
6680;BME280;3376;42.664;23.346;2023-02-17T04:22:03;95372.13;;;1.17;98.35
6680;BME280;3376;42.664;23.346;2023-02-17T04:24:33;95374.16;;;1.12;98.79
6680;BME280;3376;42.664;23.346;2023-02-17T04:27:00;95383.31;;;1.15;97.89
6680;BME280;3376;42.664;23.346;2023-02-17T04:29:28;95369.84;;;1.00;98.01
6680;BME280;3376;42.664;23.346;2023-02-17T04:31:55;95391.09;;;1.13;99.39
6680;BME280;3376;42.664;23.346;2023-02-17T04:34:22;95358.91;;;0.98;99.35
6680;BME280;3376;42.664;23.346;2023-02-17T04:36:49;95386.69;;;1.15;100.00
6680;BME280;3376;42.664;23.346;2023-02-17T04:39:16;95385.59;;;1.19;99.59
6680;BME280;3376;42.664;23.346;2023-02-17T04:41:43;95380.88;;;1.13;99.14
6680;BME280;3376;42.664;23.346;2023-02-17T04:44:10;95385.81;;;1.16;99.96
6680;BME280;3376;42.664;23.346;2023-02-17T04:46:38;95383.78;;;1.34;99.80
6680;BME280;3376;42.664;23.346;2023-02-17T04:49:04;95390.41;;;1.24;98.27
6680;BME280;3376;42.664;23.346;2023-02-17T04:51:31;95374.72;;;1.03;99.60
6680;BME280;3376;42.664;23.346;2023-02-17T04:53:58;95385.25;;;1.11;99.23
6680;BME280;3376;42.664;23.346;2023-02-17T04:56:24;95393.84;;;1.10;98.51
6680;BME280;3376;42.664;23.346;2023-02-17T04:58:51;95384.72;;;1.06;98.50
6680;BME280;3376;42.664;23.346;2023-02-17T05:01:18;95376.97;;;0.95;99.03
6680;BME280;3376;42.664;23.346;2023-02-17T05:03:46;95380.81;;;0.88;100.00
6680;BME280;3376;42.664;23.346;2023-02-17T05:06:13;95379.03;;;0.76;100.00
6680;BME280;3376;42.664;23.346;2023-02-17T05:08:39;95385.31;;;0.71;100.00
6680;BME280;3376;42.664;23.346;2023-02-17T05:11:06;95391.56;;;0.53;100.00
6680;BME280;3376;42.664;23.346;2023-02-17T05:13:33;95111.53;;;-1.26;100.00
6680;BME280;3376;42.664;23.346;2023-02-17T05:16:00;95411.47;;;0.60;100.00
6680;BME280;3376;42.664;23.346;2023-02-17T05:18:27;95374.91;;;0.47;100.00
6680;BME280;3376;42.664;23.346;2023-02-17T05:20:55;95385.81;;;0.90;100.00
6680;BME280;3376;42.664;23.346;2023-02-17T05:23:22;95401.50;;;1.10;100.00
6680;BME280;3376;42.664;23.346;2023-02-17T05:25:49;95361.13;;;0.90;100.00
6680;BME280;3376;42.664;23.346;2023-02-17T05:28:15;95397.22;;;1.11;100.00
6680;BME280;3376;42.664;23.346;2023-02-17T05:30:42;95342.81;;;0.71;100.00
6680;BME280;3376;42.664;23.346;2023-02-17T05:33:09;95411.50;;;1.13;100.00
6680;BME280;3376;42.664;23.346;2023-02-17T05:35:36;95413.88;;;1.16;100.00
6680;BME280;3376;42.664;23.346;2023-02-17T05:38:04;95432.63;;;1.15;100.00
6680;BME280;3376;42.664;23.346;2023-02-17T05:40:31;95423.25;;;1.16;100.00
6680;BME280;3376;42.664;23.346;2023-02-17T05:42:57;95418.31;;;1.40;100.00
6680;BME280;3376;42.664;23.346;2023-02-17T05:45:24;95429.13;;;1.43;99.78
6680;BME280;3376;42.664;23.346;2023-02-17T05:47:51;95439.88;;;1.48;99.32
6680;BME280;3376;42.664;23.346;2023-02-17T05:50:18;95423.63;;;1.37;100.00
6680;BME280;3376;42.664;23.346;2023-02-17T05:52:44;95442.94;;;1.53;98.38
6680;BME280;3376;42.664;23.346;2023-02-17T05:55:13;95439.41;;;1.56;99.31
6680;BME280;3376;42.664;23.346;2023-02-17T05:57:39;95278.25;;;0.71;97.48
6680;BME280;3376;42.664;23.346;2023-02-17T06:00:10;95441.94;;;1.68;96.96
6680;BME280;3376;42.664;23.346;2023-02-17T06:02:38;95407.97;;;1.68;97.12
6680;BME280;3376;42.664;23.346;2023-02-17T06:05:05;95449.66;;;2.06;95.61
6680;BME280;3376;42.664;23.346;2023-02-17T06:07:32;95426.03;;;2.02;93.85
6680;BME280;3376;42.664;23.346;2023-02-17T06:09:59;95418.38;;;2.02;94.10
6680;BME280;3376;42.664;23.346;2023-02-17T06:12:27;95454.28;;;2.26;94.14
6680;BME280;3376;42.664;23.346;2023-02-17T06:14:54;95443.63;;;2.45;99.86
6680;BME280;3376;42.664;23.346;2023-02-17T06:17:21;95459.84;;;2.56;96.49
6680;BME280;3376;42.664;23.346;2023-02-17T06:19:48;95458.09;;;2.69;95.92
6680;BME280;3376;42.664;23.346;2023-02-17T06:22:15;95447.94;;;2.80;94.74
6680;BME280;3376;42.664;23.346;2023-02-17T06:24:42;95449.31;;;2.97;93.73
6680;BME280;3376;42.664;23.346;2023-02-17T06:27:09;95461.97;;;3.11;91.14
6680;BME280;3376;42.664;23.346;2023-02-17T06:29:37;95452.22;;;3.16;89.73
6680;BME280;3376;42.664;23.346;2023-02-17T06:32:04;95461.66;;;3.39;89.48
6680;BME280;3376;42.664;23.346;2023-02-17T06:34:31;95460.03;;;3.62;89.59
6680;BME280;3376;42.664;23.346;2023-02-17T06:36:57;95456.75;;;4.05;91.25
6680;BME280;3376;42.664;23.346;2023-02-17T06:39:24;95461.59;;;4.43;87.52
6680;BME280;3376;42.664;23.346;2023-02-17T06:41:51;95466.97;;;4.84;83.81
6680;BME280;3376;42.664;23.346;2023-02-17T06:44:18;95436.84;;;4.97;78.83
6680;BME280;3376;42.664;23.346;2023-02-17T06:46:46;95370.09;;;4.97;79.36
6680;BME280;3376;42.664;23.346;2023-02-17T06:49:13;95473.09;;;6.21;75.04
6680;BME280;3376;42.664;23.346;2023-02-17T06:51:40;95478.63;;;6.67;73.14
6680;BME280;3376;42.664;23.346;2023-02-17T06:54:07;95486.22;;;7.38;70.29
6680;BME280;3376;42.664;23.346;2023-02-17T06:56:34;95410.38;;;7.41;65.99
6680;BME280;3376;42.664;23.346;2023-02-17T06:59:02;95488.72;;;8.45;63.05
6680;BME280;3376;42.664;23.346;2023-02-17T07:01:29;95490.97;;;9.03;60.69
6680;BME280;3376;42.664;23.346;2023-02-17T07:03:57;95488.88;;;9.88;58.88
6680;BME280;3376;42.664;23.346;2023-02-17T07:06:25;95495.25;;;10.54;54.66
6680;BME280;3376;42.664;23.346;2023-02-17T07:08:51;95498.81;;;11.38;53.63
6680;BME280;3376;42.664;23.346;2023-02-17T07:11:18;95469.50;;;12.12;50.63
6680;BME280;3376;42.664;23.346;2023-02-17T07:13:45;95485.19;;;12.82;47.03
6680;BME280;3376;42.664;23.346;2023-02-17T07:16:13;95473.72;;;13.32;45.88
6680;BME280;3376;42.664;23.346;2023-02-17T07:18:40;95485.53;;;14.34;43.76
6680;BME280;3376;42.664;23.346;2023-02-17T07:21:09;95481.69;;;15.25;40.77
6680;BME280;3376;42.664;23.346;2023-02-17T07:23:36;95480.78;;;15.77;38.57
6680;BME280;3376;42.664;23.346;2023-02-17T07:26:05;95480.94;;;15.90;37.67
6680;BME280;3376;42.664;23.346;2023-02-17T07:28:33;95481.94;;;15.89;37.48
6680;BME280;3376;42.664;23.346;2023-02-17T07:31:04;95487.56;;;16.28;37.26
6680;BME280;3376;42.664;23.346;2023-02-17T07:33:31;95485.81;;;16.77;35.96
6680;BME280;3376;42.664;23.346;2023-02-17T07:35:58;95400.50;;;16.34;36.12
6680;BME280;3376;42.664;23.346;2023-02-17T07:38:26;95498.59;;;17.21;35.24
6680;BME280;3376;42.664;23.346;2023-02-17T07:40:53;95499.16;;;17.44;34.91
6680;BME280;3376;42.664;23.346;2023-02-17T07:43:20;95502.16;;;17.69;33.88
6680;BME280;3376;42.664;23.346;2023-02-17T07:45:47;95490.09;;;17.81;33.70
6680;BME280;3376;42.664;23.346;2023-02-17T07:48:13;95487.31;;;17.95;33.27
6680;BME280;3376;42.664;23.346;2023-02-17T07:50:40;95498.09;;;18.26;32.64
6680;BME280;3376;42.664;23.346;2023-02-17T07:53:07;95493.31;;;17.83;31.81
6680;BME280;3376;42.664;23.346;2023-02-17T07:55:36;95496.06;;;17.62;32.62
6680;BME280;3376;42.664;23.346;2023-02-17T07:58:02;95485.19;;;17.65;31.64
6680;BME280;3376;42.664;23.346;2023-02-17T08:00:29;95490.03;;;17.33;31.89
6680;BME280;3376;42.664;23.346;2023-02-17T08:02:56;95488.09;;;17.14;32.24
6680;BME280;3376;42.664;23.346;2023-02-17T08:05:23;95485.00;;;17.04;32.92
6680;BME280;3376;42.664;23.346;2023-02-17T08:07:50;95491.59;;;17.55;32.83
6680;BME280;3376;42.664;23.346;2023-02-17T08:10:38;95473.53;;;17.74;32.48
6680;BME280;3376;42.664;23.346;2023-02-17T08:13:23;95487.59;;;18.26;31.29
6680;BME280;3376;42.664;23.346;2023-02-17T08:15:50;95497.94;;;18.41;31.06
6680;BME280;3376;42.664;23.346;2023-02-17T08:18:17;95494.94;;;18.70;30.31
6680;BME280;3376;42.664;23.346;2023-02-17T08:20:44;95489.13;;;18.68;31.22
6680;BME280;3376;42.664;23.346;2023-02-17T08:23:11;95481.81;;;18.70;30.68
6680;BME280;3376;42.664;23.346;2023-02-17T08:25:39;95486.28;;;18.63;30.58
6680;BME280;3376;42.664;23.346;2023-02-17T08:28:06;95481.63;;;18.85;30.50
6680;BME280;3376;42.664;23.346;2023-02-17T08:30:34;95489.72;;;19.09;30.08
6680;BME280;3376;42.664;23.346;2023-02-17T08:33:02;95480.19;;;19.08;30.33
6680;BME280;3376;42.664;23.346;2023-02-17T08:35:30;95499.19;;;19.36;29.91
6680;BME280;3376;42.664;23.346;2023-02-17T08:37:56;95473.00;;;19.74;29.42
6680;BME280;3376;42.664;23.346;2023-02-17T08:40:23;95488.59;;;20.20;28.68
6680;BME280;3376;42.664;23.346;2023-02-17T08:42:52;95488.22;;;20.47;28.71
6680;BME280;3376;42.664;23.346;2023-02-17T08:45:19;95487.22;;;20.73;27.54
6680;BME280;3376;42.664;23.346;2023-02-17T08:47:46;95480.53;;;21.01;27.46
6680;BME280;3376;42.664;23.346;2023-02-17T08:50:15;95465.28;;;21.28;26.94
6680;BME280;3376;42.664;23.346;2023-02-17T08:52:44;95479.09;;;21.66;26.49
6680;BME280;3376;42.664;23.346;2023-02-17T08:55:11;95470.19;;;21.85;26.18
6680;BME280;3376;42.664;23.346;2023-02-17T08:57:38;95476.47;;;22.02;25.77
6680;BME280;3376;42.664;23.346;2023-02-17T09:00:08;95475.66;;;22.32;25.27
6680;BME280;3376;42.664;23.346;2023-02-17T09:02:34;95485.75;;;22.35;25.21
6680;BME280;3376;42.664;23.346;2023-02-17T09:05:02;95485.94;;;22.51;25.19
6680;BME280;3376;42.664;23.346;2023-02-17T09:07:29;95478.75;;;22.70;25.36
6680;BME280;3376;42.664;23.346;2023-02-17T09:09:56;95479.38;;;22.83;24.69
6680;BME280;3376;42.664;23.346;2023-02-17T09:12:23;95472.69;;;22.69;24.74
6680;BME280;3376;42.664;23.346;2023-02-17T09:14:50;95470.13;;;22.63;24.79
6680;BME280;3376;42.664;23.346;2023-02-17T09:17:18;95475.06;;;22.30;25.23
6680;BME280;3376;42.664;23.346;2023-02-17T09:19:45;95466.38;;;22.41;25.51
6680;BME280;3376;42.664;23.346;2023-02-17T09:22:12;95471.38;;;22.31;25.28
6680;BME280;3376;42.664;23.346;2023-02-17T09:24:41;95454.22;;;22.40;24.89
6680;BME280;3376;42.664;23.346;2023-02-17T09:27:08;95475.13;;;22.53;24.87
6680;BME280;3376;42.664;23.346;2023-02-17T09:29:36;95472.56;;;22.05;25.67
6680;BME280;3376;42.664;23.346;2023-02-17T09:32:05;95428.88;;;21.91;24.80
6680;BME280;3376;42.664;23.346;2023-02-17T09:34:34;95463.84;;;21.86;24.83
6680;BME280;3376;42.664;23.346;2023-02-17T09:37:01;95453.00;;;20.97;24.03
6680;BME280;3376;42.664;23.346;2023-02-17T09:39:29;95462.41;;;20.87;23.69
6680;BME280;3376;42.664;23.346;2023-02-17T09:41:55;95459.88;;;20.98;23.42
6680;BME280;3376;42.664;23.346;2023-02-17T09:44:23;95466.91;;;20.80;23.48
6680;BME280;3376;42.664;23.346;2023-02-17T09:46:56;95456.56;;;20.54;23.48
6680;BME280;3376;42.664;23.346;2023-02-17T09:49:25;95435.44;;;19.98;23.67
6680;BME280;3376;42.664;23.346;2023-02-17T09:51:59;95446.81;;;19.41;24.49
6680;BME280;3376;42.664;23.346;2023-02-17T09:54:31;95458.75;;;19.24;25.03
6680;BME280;3376;42.664;23.346;2023-02-17T09:57:02;95445.19;;;19.27;25.39
6680;BME280;3376;42.664;23.346;2023-02-17T09:59:33;95448.47;;;19.10;24.64
6680;BME280;3376;42.664;23.346;2023-02-17T10:02:06;95450.50;;;19.01;24.54
6680;BME280;3376;42.664;23.346;2023-02-17T10:04:36;95415.63;;;18.68;25.21
6680;BME280;3376;42.664;23.346;2023-02-17T10:07:10;95454.94;;;19.14;24.57
6680;BME280;3376;42.664;23.346;2023-02-17T10:09:46;95342.53;;;18.39;24.49
6680;BME280;3376;42.664;23.346;2023-02-17T10:12:17;95453.56;;;18.72;24.63
6680;BME280;3376;42.664;23.346;2023-02-17T10:14:50;95438.19;;;18.82;24.87
6680;BME280;3376;42.664;23.346;2023-02-17T10:17:21;95446.44;;;19.25;24.93
6680;BME280;3376;42.664;23.346;2023-02-17T10:19:53;95429.66;;;19.32;24.47
6680;BME280;3376;42.664;23.346;2023-02-17T10:22:25;95434.19;;;18.73;25.22
6680;BME280;3376;42.664;23.346;2023-02-17T10:24:52;95434.78;;;18.75;25.13
6680;BME280;3376;42.664;23.346;2023-02-17T10:27:27;95431.75;;;18.52;24.17
6680;BME280;3376;42.664;23.346;2023-02-17T10:30:05;95424.66;;;18.33;24.80
6680;BME280;3376;42.664;23.346;2023-02-17T10:32:43;95414.94;;;18.01;24.79
6680;BME280;3376;42.664;23.346;2023-02-17T10:35:13;95413.13;;;18.21;25.63
6680;BME280;3376;42.664;23.346;2023-02-17T10:37:46;95405.88;;;18.23;24.98
6680;BME280;3376;42.664;23.346;2023-02-17T10:40:17;95411.94;;;18.17;25.91
6680;BME280;3376;42.664;23.346;2023-02-17T10:42:46;95394.94;;;17.93;25.23
6680;BME280;3376;42.664;23.346;2023-02-17T10:45:23;95385.31;;;18.20;25.17
6680;BME280;3376;42.664;23.346;2023-02-17T10:47:56;95407.53;;;18.43;25.36
6680;BME280;3376;42.664;23.346;2023-02-17T10:50:25;95387.94;;;18.59;24.76
6680;BME280;3376;42.664;23.346;2023-02-17T10:52:54;95396.03;;;18.51;25.02
6680;BME280;3376;42.664;23.346;2023-02-17T10:55:28;95400.66;;;18.68;25.20
6680;BME280;3376;42.664;23.346;2023-02-17T10:58:02;95376.81;;;18.70;24.75
6680;BME280;3376;42.664;23.346;2023-02-17T11:00:30;95378.44;;;18.71;25.26
6680;BME280;3376;42.664;23.346;2023-02-17T11:02:57;95386.94;;;18.47;24.94
6680;BME280;3376;42.664;23.346;2023-02-17T11:05:26;95385.91;;;18.67;30.86
6680;BME280;3376;42.664;23.346;2023-02-17T11:07:56;95386.53;;;18.69;29.26
6680;BME280;3376;42.664;23.346;2023-02-17T11:10:27;95383.63;;;19.10;30.41
6680;BME280;3376;42.664;23.346;2023-02-17T11:12:55;95376.97;;;19.01;28.08
6680;BME280;3376;42.664;23.346;2023-02-17T11:15:26;95380.00;;;18.98;26.55
6680;BME280;3376;42.664;23.346;2023-02-17T11:17:54;95383.94;;;19.27;28.46
6680;BME280;3376;42.664;23.346;2023-02-17T11:20:33;95382.16;;;19.71;31.23
6680;BME280;3376;42.664;23.346;2023-02-17T11:23:05;95374.41;;;19.89;25.97
6680;BME280;3376;42.664;23.346;2023-02-17T11:25:35;95382.94;;;19.78;25.43
6680;BME280;3376;42.664;23.346;2023-02-17T11:28:04;95363.63;;;19.60;26.69
6680;BME280;3376;42.664;23.346;2023-02-17T11:30:33;95377.53;;;20.05;27.02
6680;BME280;3376;42.664;23.346;2023-02-17T11:33:10;95364.28;;;20.24;25.62
6680;BME280;3376;42.664;23.346;2023-02-17T11:35:49;95370.63;;;19.79;25.46
6680;BME280;3376;42.664;23.346;2023-02-17T11:38:20;95370.91;;;19.58;26.96
6680;BME280;3376;42.664;23.346;2023-02-17T11:40:56;95362.47;;;19.49;25.67
6680;BME280;3376;42.664;23.346;2023-02-17T11:43:23;95356.25;;;19.37;26.52
6680;BME280;3376;42.664;23.346;2023-02-17T11:45:59;95358.34;;;19.16;26.66
6680;BME280;3376;42.664;23.346;2023-02-17T11:48:52;95356.97;;;19.00;28.63
6680;BME280;3376;42.664;23.346;2023-02-17T11:51:26;95356.59;;;19.54;27.59
6680;BME280;3376;42.664;23.346;2023-02-17T11:54:08;95355.91;;;19.65;25.65
6680;BME280;3376;42.664;23.346;2023-02-17T11:56:43;95346.22;;;19.65;28.16
6680;BME280;3376;42.664;23.346;2023-02-17T11:59:29;95348.69;;;19.92;27.15
6680;BME280;3376;42.664;23.346;2023-02-17T12:02:16;95347.44;;;19.94;26.44
6680;BME280;3376;42.664;23.346;2023-02-17T12:04:53;95352.81;;;20.06;26.90
6680;BME280;3376;42.664;23.346;2023-02-17T12:07:40;95342.56;;;19.66;25.78
6680;BME280;3376;42.664;23.346;2023-02-17T12:10:20;95328.38;;;19.23;27.02
6680;BME280;3376;42.664;23.346;2023-02-17T12:12:57;95321.31;;;19.37;28.52
6680;BME280;3376;42.664;23.346;2023-02-17T12:15:35;95329.28;;;19.55;27.42
6680;BME280;3376;42.664;23.346;2023-02-17T12:18:12;95323.97;;;19.61;27.08
6680;BME280;3376;42.664;23.346;2023-02-17T12:20:49;95315.09;;;19.62;27.54
6680;BME280;3376;42.664;23.346;2023-02-17T12:23:26;95325.09;;;19.78;26.57
6680;BME280;3376;42.664;23.346;2023-02-17T12:26:04;95315.06;;;19.93;26.44
6680;BME280;3376;42.664;23.346;2023-02-17T12:28:40;95300.81;;;19.76;26.66
6680;BME280;3376;42.664;23.346;2023-02-17T12:31:20;95304.97;;;19.66;25.61
6680;BME280;3376;42.664;23.346;2023-02-17T12:33:56;95297.47;;;19.63;26.56
6680;BME280;3376;42.664;23.346;2023-02-17T12:36:29;95297.19;;;19.77;26.35
6680;BME280;3376;42.664;23.346;2023-02-17T12:38:59;95298.28;;;19.63;25.66
6680;BME280;3376;42.664;23.346;2023-02-17T12:41:32;95283.69;;;19.36;26.58
6680;BME280;3376;42.664;23.346;2023-02-17T12:44:03;95288.16;;;19.36;26.15
6680;BME280;3376;42.664;23.346;2023-02-17T12:46:37;95185.97;;;18.77;28.34
6680;BME280;3376;42.664;23.346;2023-02-17T12:49:09;95271.94;;;19.45;26.81
6680;BME280;3376;42.664;23.346;2023-02-17T12:51:40;95290.41;;;19.63;29.16
6680;BME280;3376;42.664;23.346;2023-02-17T12:54:14;95285.38;;;19.62;27.99
6680;BME280;3376;42.664;23.346;2023-02-17T12:56:53;95281.41;;;19.77;26.60
6680;BME280;3376;42.664;23.346;2023-02-17T12:59:26;95275.22;;;19.65;27.71
6680;BME280;3376;42.664;23.346;2023-02-17T13:01:59;95272.38;;;19.36;26.00
6680;BME280;3376;42.664;23.346;2023-02-17T13:04:29;95284.00;;;19.53;27.25
6680;BME280;3376;42.664;23.346;2023-02-17T13:07:17;95280.31;;;19.60;27.31
6680;BME280;3376;42.664;23.346;2023-02-17T13:09:48;95279.56;;;19.78;26.94
6680;BME280;3376;42.664;23.346;2023-02-17T13:12:32;95270.56;;;19.67;26.72
6680;BME280;3376;42.664;23.346;2023-02-17T13:15:01;95261.06;;;19.35;26.82
6680;BME280;3376;42.664;23.346;2023-02-17T13:17:30;95277.59;;;19.42;26.75
6680;BME280;3376;42.664;23.346;2023-02-17T13:20:23;95277.59;;;19.42;26.06
6680;BME280;3376;42.664;23.346;2023-02-17T13:23:02;95276.03;;;19.28;27.40
6680;BME280;3376;42.664;23.346;2023-02-17T13:25:31;95274.13;;;19.48;26.30
6680;BME280;3376;42.664;23.346;2023-02-17T13:28:01;95265.16;;;19.25;26.33
6680;BME280;3376;42.664;23.346;2023-02-17T13:30:36;95261.53;;;19.19;27.65
6680;BME280;3376;42.664;23.346;2023-02-17T13:33:06;95260.94;;;19.17;26.80
6680;BME280;3376;42.664;23.346;2023-02-17T13:35:41;95263.06;;;18.96;26.05
6680;BME280;3376;42.664;23.346;2023-02-17T13:38:09;95260.75;;;19.12;27.93